Time;durP1;ratioP1;P1;durP2;ratioP2;P2;SDS_P1;SDS_P2;PMS_P1;PMS_P2;Temp;Humidity;BMP_temperature;BMP_pressure;BME280_temperature;BME280_humidity;BME280_pressure;Samples;Min_cycle;Max_cycle;Signal;HPM_P1;HPM_P2
2021/06/09 00:01:00;;;;;;;9.75;4.97;;;;;;;17.82;85.04;100933.41;1721156;83;20931;-73
2021/06/09 00:03:27;;;;;;;10.78;4.67;;;;;;;17.82;85.16;100938.66;1721157;83;20998;-70
2021/06/09 00:05:54;;;;;;;4.85;3.33;;;;;;;17.81;85.53;100939.63;1721133;83;21558;-71
2021/06/09 00:08:20;;;;;;;7.72;3.37;;;;;;;17.81;85.99;100938.31;1721468;83;20927;-75
2021/06/09 00:10:48;;;;;;;6.22;3.52;;;;;;;17.82;86.69;100926.38;1721368;83;20988;-75
2021/06/09 00:13:16;;;;;;;3.75;3.12;;;;;;;17.86;87.40;100929.55;1721282;82;21003;-81
2021/06/09 00:15:43;;;;;;;4.97;3.05;;;;;;;17.89;87.67;100928.78;1721508;83;21537;-73
2021/06/09 00:18:11;;;;;;;4.42;3.22;;;;;;;17.90;87.62;100925.16;1721304;83;20948;-73
2021/06/09 00:20:38;;;;;;;6.45;3.72;;;;;;;17.90;87.60;100923.85;1721160;83;20986;-82
2021/06/09 00:23:05;;;;;;;5.35;3.08;;;;;;;17.89;87.75;100914.34;1721203;83;21145;-83
2021/06/09 00:25:31;;;;;;;5.17;3.20;;;;;;;17.87;87.90;100914.11;1721432;82;20919;-75
2021/06/09 00:28:00;;;;;;;5.97;3.42;;;;;;;17.83;87.95;100911.45;1721419;83;20916;-77
2021/06/09 00:30:33;;;;;;;5.60;3.35;;;;;;;17.79;88.13;100923.19;1721201;83;21034;-75
2021/06/09 00:33:01;;;;;;;5.12;3.85;;;;;;;17.75;88.41;100927.06;1721315;83;20900;-78
2021/06/09 00:35:29;;;;;;;7.75;3.40;;;;;;;17.69;88.81;100932.40;1721535;82;21123;-77
2021/06/09 00:37:55;;;;;;;7.17;4.37;;;;;;;17.61;89.23;100933.59;1721349;83;21066;-77
2021/06/09 00:40:23;;;;;;;9.53;4.42;;;;;;;17.52;89.49;100935.69;1721266;82;21494;-74
2021/06/09 00:43:14;;;;;;;11.63;5.08;;;;;;;17.43;89.71;100930.80;1721549;83;20971;-73
2021/06/09 00:45:46;;;;;;;11.25;4.20;;;;;;;17.38;89.80;100921.69;1722320;83;20966;-79
2021/06/09 00:48:13;;;;;;;8.58;5.37;;;;;;;17.34;89.95;100925.55;1727598;83;21852;-84
2021/06/09 00:50:40;;;;;;;6.72;3.90;;;;;;;17.32;90.09;100928.33;1727948;83;20887;-76
2021/06/09 00:55:52;;;;;;;14.47;4.60;;;;;;;17.26;89.62;100922.80;1733175;82;20966;-79
2021/06/09 00:58:19;;;;;;;16.77;4.35;;;;;;;17.23;89.56;100918.63;1733239;82;20856;-76
2021/06/09 01:00:45;;;;;;;7.62;4.10;;;;;;;17.18;89.70;100916.08;1732886;82;22041;-80
2021/06/09 01:03:12;;;;;;;8.83;4.53;;;;;;;17.14;89.53;100916.00;1732765;82;20911;-77
2021/06/09 01:05:40;;;;;;;6.67;4.20;;;;;;;17.09;89.37;100915.13;1727813;83;20991;-82
2021/06/09 01:08:07;;;;;;;10.00;4.37;;;;;;;17.02;89.48;100920.55;1732845;82;21537;-77
2021/06/09 01:10:35;;;;;;;9.83;3.75;;;;;;;16.98;89.55;100922.27;1727674;82;21684;-76
2021/06/09 01:13:02;;;;;;;7.22;4.00;;;;;;;16.93;89.54;100918.75;1727725;83;21202;-77
2021/06/09 01:15:29;;;;;;;11.20;4.47;;;;;;;16.89;89.59;100916.05;1732948;82;21050;-76
2021/06/09 01:17:56;;;;;;;14.40;4.30;;;;;;;16.87;89.71;100921.92;1727681;83;21490;-81
2021/06/09 01:20:23;;;;;;;11.20;4.12;;;;;;;16.86;89.70;100920.25;1733003;82;21603;-80
2021/06/09 01:22:50;;;;;;;28.92;5.10;;;;;;;16.84;89.55;100916.47;1727856;83;20860;-78
2021/06/09 01:25:21;;;;;;;19.67;4.40;;;;;;;16.84;89.49;100918.26;1733227;82;21203;-76
2021/06/09 01:27:49;;;;;;;13.58;4.17;;;;;;;16.84;89.39;100916.95;1727852;82;21541;-75
2021/06/09 01:30:18;;;;;;;19.60;4.30;;;;;;;16.82;89.32;100918.37;1727633;83;20995;-77
2021/06/09 01:32:45;;;;;;;15.95;5.12;;;;;;;16.81;89.31;100920.67;1733001;82;20978;-85
2021/06/09 01:35:12;;;;;;;19.27;5.45;;;;;;;16.78;89.35;100914.36;1727718;83;21601;-76
2021/06/09 01:37:39;;;;;;;18.62;5.45;;;;;;;16.76;89.47;100923.33;1727563;83;21108;-75
2021/06/09 01:40:10;;;;;;;20.75;5.20;;;;;;;16.72;89.76;100921.97;1732995;82;21587;-76
2021/06/09 01:42:38;;;;;;;11.20;4.95;;;;;;;16.66;90.06;100914.13;1733384;82;21024;-76
2021/06/09 01:45:11;;;;;;;10.43;4.35;;;;;;;16.62;90.35;100912.77;1727847;82;21558;-79
2021/06/09 01:47:38;;;;;;;12.88;4.37;;;;;;;16.56;90.70;100916.40;1732613;82;20986;-79
2021/06/09 01:50:07;;;;;;;8.80;4.12;;;;;;;16.50;90.92;100919.02;1699150;83;21477;-80
2021/06/09 01:52:34;;;;;;;7.12;3.80;;;;;;;16.47;91.24;100912.73;1732995;82;21579;-79
2021/06/09 01:55:01;;;;;;;6.25;4.10;;;;;;;16.43;91.43;100920.02;1728098;83;20935;-80
2021/06/09 02:01:43;;;;;;;10.23;4.50;;;;;;;16.42;91.75;100921.48;1732702;82;20958;-76
2021/06/09 02:04:12;;;;;;;12.10;4.28;;;;;;;16.39;91.92;100921.75;1727646;83;21115;-77
2021/06/09 02:06:41;;;;;;;9.23;4.35;;;;;;;16.41;92.00;100925.05;1727639;83;20860;-79
2021/06/09 02:09:10;;;;;;;7.97;3.85;;;;;;;16.40;91.98;100921.59;1727665;83;21057;-82
2021/06/09 02:11:40;;;;;;;8.38;3.87;;;;;;;16.43;91.90;100923.62;1733039;82;21026;-75
2021/06/09 02:14:07;;;;;;;6.03;3.95;;;;;;;16.45;91.69;100930.86;1727730;82;20947;-71
2021/06/09 02:16:39;;;;;;;9.60;4.20;;;;;;;16.46;91.55;100929.44;1727934;83;21919;-75
2021/06/09 02:19:06;;;;;;;6.25;3.77;;;;;;;16.49;91.30;100922.62;1727830;83;28171;-76
2021/06/09 02:21:36;;;;;;;7.37;4.05;;;;;;;16.49;91.08;100930.47;1732928;82;21501;-75
2021/06/09 02:24:04;;;;;;;7.37;3.77;;;;;;;16.51;90.91;100926.40;1727622;83;20979;-78
2021/06/09 02:26:31;;;;;;;6.30;4.08;;;;;;;16.53;90.80;100929.22;1732901;82;20899;-76
2021/06/09 02:29:00;;;;;;;9.18;4.28;;;;;;;16.56;90.67;100931.61;1727691;83;21147;-77
2021/06/09 02:31:26;;;;;;;5.05;3.58;;;;;;;16.58;90.52;100934.11;1702790;82;20939;-82
2021/06/09 02:33:57;;;;;;;7.97;4.10;;;;;;;16.59;90.42;100937.09;1727793;83;20927;-75
2021/06/09 02:36:26;;;;;;;9.10;4.20;;;;;;;16.58;90.35;100931.02;1727479;83;21110;-74
2021/06/09 02:38:53;;;;;;;9.98;4.20;;;;;;;16.60;90.26;100931.70;1727632;83;20999;-73
2021/06/09 02:41:20;;;;;;;8.18;4.10;;;;;;;16.62;90.26;100931.58;1727779;83;21104;-74
2021/06/09 02:43:48;;;;;;;10.80;5.20;;;;;;;16.66;90.17;100929.02;1732838;82;21513;-73
2021/06/09 02:46:36;;;;;;;7.10;3.98;;;;;;;16.70;90.19;100931.73;1733037;81;20879;-73
2021/06/09 02:49:08;;;;;;;7.55;4.53;;;;;;;16.73;90.21;100929.67;1719774;83;21078;-75
2021/06/09 02:51:44;;;;;;;9.43;4.13;;;;;;;16.75;89.84;100929.55;1672009;85;20968;-75
2021/06/09 02:54:32;;;;;;;8.63;4.03;;;;;;;16.76;89.58;100929.41;1727824;83;21744;-73
2021/06/09 02:57:30;;;;;;;8.40;4.17;;;;;;;16.77;90.08;100932.86;1700100;84;20917;-74
2021/06/09 03:00:05;;;;;;;8.28;4.15;;;;;;;16.78;89.99;100935.84;1727731;83;21504;-76
2021/06/09 03:02:52;;;;;;;8.33;3.92;;;;;;;16.78;89.62;100935.84;1727941;83;21010;-77
2021/06/09 03:05:35;;;;;;;7.15;4.53;;;;;;;16.80;89.49;100941.77;1727700;82;21023;-75
2021/06/09 03:08:29;;;;;;;5.30;4.45;;;;;;;16.80;89.42;100947.84;1687170;85;21119;-74
2021/06/09 03:11:24;;;;;;;7.28;4.25;;;;;;;16.80;89.35;100945.69;1720098;83;20979;-75
2021/06/09 03:16:57;;;;;;;9.30;4.35;;;;;;;16.81;89.50;100945.58;1727520;83;21035;-73
2021/06/09 03:19:42;;;;;;;9.40;4.72;;;;;;;16.84;89.39;100952.34;1672019;85;21574;-78
2021/06/09 03:22:31;;;;;;;13.32;6.45;;;;;;;16.85;89.25;100937.77;1682901;85;21135;-78
2021/06/09 03:24:59;;;;;;;10.20;5.30;;;;;;;16.86;89.12;100935.50;1719949;83;21438;-76
2021/06/09 03:27:46;;;;;;;6.33;4.55;;;;;;;16.86;89.16;100945.16;1671875;85;20968;-79
2021/06/09 03:30:14;;;;;;;9.90;4.40;;;;;;;16.84;89.33;100947.92;1723934;83;21031;-76
2021/06/09 03:32:52;;;;;;;6.00;4.00;;;;;;;16.80;89.56;100940.45;1705376;83;21493;-78
2021/06/09 03:35:26;;;;;;;7.15;4.00;;;;;;;16.76;90.04;100944.30;1727750;82;21135;-76
2021/06/09 03:37:54;;;;;;;10.13;4.75;;;;;;;16.73;90.79;100947.19;1667568;85;21451;-80
2021/06/09 03:40:28;;;;;;;8.25;4.55;;;;;;;16.76;91.48;100950.84;1700243;84;21532;-77
2021/06/09 03:43:00;;;;;;;8.23;4.47;;;;;;;16.83;91.89;100944.95;1720336;83;21034;-76
2021/06/09 03:45:27;;;;;;;10.25;4.65;;;;;;;16.96;92.82;100943.86;1687219;85;21576;-77
2021/06/09 03:47:56;;;;;;;8.33;4.17;;;;;;;17.08;92.70;100946.23;1720059;83;21089;-79
2021/06/09 03:50:25;;;;;;;6.08;4.37;;;;;;;17.19;92.56;100943.98;1719854;83;21553;-74
2021/06/09 03:52:51;;;;;;;8.53;4.40;;;;;;;17.33;92.44;100943.55;1687253;85;21470;-73
2021/06/09 03:55:22;;;;;;;9.75;4.53;;;;;;;17.46;92.24;100951.51;1719897;83;20975;-77
2021/06/09 03:57:53;;;;;;;8.93;4.00;;;;;;;17.59;92.12;100950.42;1687422;85;21013;-73
2021/06/09 04:00:22;;;;;;;8.23;4.40;;;;;;;17.72;92.12;100953.59;1719926;83;21119;-72
2021/06/09 04:02:48;;;;;;;6.47;4.35;;;;;;;17.86;92.54;100959.73;1646653;85;21609;-77
2021/06/09 04:05:15;;;;;;;11.80;4.50;;;;;;;17.97;93.33;100972.21;1727646;83;20998;-78
2021/06/09 04:07:44;;;;;;;9.95;4.92;;;;;;;18.05;93.90;100974.62;1671912;85;21163;-70
2021/06/09 04:10:11;;;;;;;6.15;4.17;;;;;;;18.10;94.52;100973.70;1683115;85;20965;-75
2021/06/09 04:12:39;;;;;;;8.13;4.45;;;;;;;18.14;95.02;100976.39;1720207;83;21320;-74
2021/06/09 04:15:11;;;;;;;7.87;4.30;;;;;;;18.14;94.57;100976.39;1687325;85;20957;-73
2021/06/09 04:17:39;;;;;;;6.78;4.08;;;;;;;18.16;94.45;100973.96;1720271;83;20974;-77
2021/06/09 04:20:07;;;;;;;7.00;4.12;;;;;;;18.16;93.83;100985.78;1672000;85;20960;-75
2021/06/09 04:22:35;;;;;;;8.25;4.17;;;;;;;18.15;93.27;100981.52;1727875;83;21587;-82
2021/06/09 04:25:03;;;;;;;5.90;4.03;;;;;;;18.14;92.92;100979.86;1687362;84;21138;-80
2021/06/09 04:27:33;;;;;;;10.95;4.45;;;;;;;18.11;92.61;100984.56;1695446;83;21010;-78
2021/06/09 04:29:59;;;;;;;5.50;4.08;;;;;;;18.09;92.14;100982.09;1687164;85;20965;-73
2021/06/09 04:32:26;;;;;;;8.65;4.72;;;;;;;18.09;91.48;100985.20;1693973;83;21007;-81
2021/06/09 04:34:55;;;;;;;8.10;4.60;;;;;;;18.09;91.38;100983.88;1672015;85;21696;-77
2021/06/09 04:37:25;;;;;;;7.60;4.70;;;;;;;18.10;90.84;100980.27;1727747;83;21124;-78
2021/06/09 04:39:53;;;;;;;7.97;4.60;;;;;;;18.12;90.50;100985.75;1687408;84;21432;-74
2021/06/09 04:42:21;;;;;;;9.90;4.70;;;;;;;18.15;90.57;100980.20;1719928;83;21055;-79
2021/06/09 04:44:48;;;;;;;7.30;4.47;;;;;;;18.20;90.63;100993.73;1672114;85;20961;-76
2021/06/09 04:47:14;;;;;;;8.80;4.30;;;;;;;18.23;90.38;100980.31;1729713;82;20933;-71
2021/06/09 04:49:44;;;;;;;9.13;5.10;;;;;;;18.27;90.21;100989.57;1727972;83;21716;-74
2021/06/09 04:52:12;;;;;;;9.80;4.83;;;;;;;18.32;89.02;100990.44;1727700;83;21029;-75
2021/06/09 04:54:39;;;;;;;5.47;4.15;;;;;;;18.35;88.84;100985.73;1733175;82;21406;-74
2021/06/09 04:57:07;;;;;;;4.85;3.75;;;;;;;18.41;88.91;100985.16;1727799;83;21624;-84
2021/06/09 04:59:34;;;;;;;8.00;3.42;;;;;;;18.49;88.35;100980.05;1733269;82;21529;-75
2021/06/09 05:02:00;;;;;;;6.33;4.05;;;;;;;18.53;88.04;100984.54;1727903;83;21110;-75
2021/06/09 05:04:27;;;;;;;7.25;4.08;;;;;;;18.56;87.65;100983.42;1733047;82;20939;-81
2021/06/09 05:06:54;;;;;;;5.40;3.87;;;;;;;18.57;87.84;100980.63;1728007;83;21616;-77
2021/06/09 05:09:21;;;;;;;6.92;3.17;;;;;;;18.62;87.80;100984.98;1727797;83;20915;-85
2021/06/09 05:12:19;;;;;;;4.90;3.90;;;;;;;18.67;87.35;100991.94;1702308;82;21055;-75
2021/06/09 05:14:57;;;;;;;7.62;3.60;;;;;;;18.69;86.65;100981.29;1732426;82;21767;-77
2021/06/09 05:17:27;;;;;;;8.73;4.12;;;;;;;18.73;86.79;100981.34;1732890;82;21513;-74
2021/06/09 05:19:57;;;;;;;6.75;3.70;;;;;;;18.81;86.96;100984.06;1733096;82;20978;-76
2021/06/09 05:22:34;;;;;;;5.37;3.52;;;;;;;18.86;86.59;100980.49;1727505;83;21085;-80
2021/06/09 05:25:03;;;;;;;4.72;3.62;;;;;;;18.92;86.21;100979.94;1698551;83;20996;-72
2021/06/09 05:27:30;;;;;;;6.75;4.85;;;;;;;18.96;86.01;100973.38;1727702;83;21164;-82
2021/06/09 05:29:57;;;;;;;7.72;4.97;;;;;;;19.02;86.08;100974.94;1733038;82;20895;-74
2021/06/09 05:32:26;;;;;;;7.87;4.80;;;;;;;19.10;85.80;100979.47;1699174;83;21081;-75
2021/06/09 05:34:52;;;;;;;7.33;3.98;;;;;;;19.15;85.24;100985.10;1702306;82;20990;-72
2021/06/09 05:37:19;;;;;;;5.25;3.50;;;;;;;19.20;84.67;100986.81;1732810;82;21054;-76
2021/06/09 05:39:46;;;;;;;8.80;3.80;;;;;;;19.27;84.74;100989.68;1733047;82;21535;-73
2021/06/09 05:42:15;;;;;;;6.12;3.70;;;;;;;19.35;84.13;100991.90;1732727;82;21556;-74
2021/06/09 05:44:55;;;;;;;5.30;4.03;;;;;;;19.42;84.51;100992.16;1733497;82;20907;-75
2021/06/09 05:47:24;;;;;;;7.87;3.95;;;;;;;19.53;84.72;100995.87;1733339;82;21128;-73
2021/06/09 05:50:16;;;;;;;6.15;3.47;;;;;;;19.65;83.76;100991.22;1720478;83;21478;-75
2021/06/09 05:52:43;;;;;;;7.93;3.50;;;;;;;19.74;78.17;100988.98;1688590;85;21214;-77
2021/06/09 05:55:16;;;;;;;7.90;3.35;;;;;;;19.85;77.45;100988.25;1694895;83;21081;-72
2021/06/09 05:57:45;;;;;;;3.70;2.95;;;;;;;19.95;74.57;100996.06;1715051;83;20921;-78
2021/06/09 06:00:13;;;;;;;3.60;2.95;;;;;;;20.02;74.27;100991.83;1729900;83;21426;-75
2021/06/09 06:02:40;;;;;;;4.03;3.20;;;;;;;20.09;74.42;100990.25;1729558;83;21425;-80
2021/06/09 06:05:08;;;;;;;6.97;3.60;;;;;;;20.14;72.89;100996.34;1729442;83;21123;-82
2021/06/09 06:07:37;;;;;;;4.40;3.17;;;;;;;20.16;74.00;100997.05;1729341;83;20941;-75
2021/06/09 06:10:06;;;;;;;7.72;3.35;;;;;;;20.19;73.98;100998.05;1702897;83;20964;-72
2021/06/09 06:12:33;;;;;;;6.08;3.12;;;;;;;20.27;73.46;100999.44;1729406;83;21063;-74
2021/06/09 06:15:06;;;;;;;3.30;2.98;;;;;;;20.33;73.17;100996.17;1729524;83;20965;-73
2021/06/09 06:17:38;;;;;;;6.53;3.50;;;;;;;20.42;73.05;100988.16;1729793;83;21108;-74
2021/06/09 06:20:15;;;;;;;4.42;2.92;;;;;;;20.48;72.11;100988.88;1729545;83;20905;-73
2021/06/09 06:22:44;;;;;;;5.35;2.98;;;;;;;20.52;71.49;100986.73;1730059;83;21024;-80
2021/06/09 06:25:17;;;;;;;6.10;3.50;;;;;;;20.56;72.02;100982.80;1730603;83;20944;-77
2021/06/09 06:27:45;;;;;;;10.13;3.22;;;;;;;20.60;72.35;100981.51;1729077;83;20981;-76
2021/06/09 06:30:15;;;;;;;4.22;3.27;;;;;;;20.68;72.68;100985.48;1704583;83;21172;-77
2021/06/09 06:32:42;;;;;;;4.95;2.80;;;;;;;20.73;71.20;100983.70;1711184;83;21020;-75
2021/06/09 06:35:14;;;;;;;9.05;3.47;;;;;;;20.77;71.81;100983.20;1729420;83;20956;-80
2021/06/09 06:37:43;;;;;;;5.92;3.37;;;;;;;20.85;70.91;100987.70;1729478;83;21064;-78
2021/06/09 06:40:11;;;;;;;13.32;3.60;;;;;;;20.89;71.76;100978.48;1706412;83;20953;-75
2021/06/09 06:42:38;;;;;;;5.65;3.05;;;;;;;20.97;71.72;100982.45;1700393;84;21591;-77
2021/06/09 06:45:09;;;;;;;10.55;3.42;;;;;;;21.01;71.68;100981.98;1670464;86;21041;-78
2021/06/09 06:47:37;;;;;;;6.87;2.60;;;;;;;21.08;71.29;100980.86;1700550;84;21087;-78
2021/06/09 06:50:06;;;;;;;5.45;3.02;;;;;;;21.18;70.73;100982.06;1705139;84;21183;-82
2021/06/09 06:52:44;;;;;;;3.65;2.65;;;;;;;21.27;70.24;100981.92;1705303;84;21601;-75
2021/06/09 06:55:15;;;;;;;8.33;2.83;;;;;;;21.32;69.16;100978.28;1705100;84;21854;-77
2021/06/09 06:57:46;;;;;;;3.47;2.70;;;;;;;21.41;69.11;100980.47;1704050;84;21704;-78
2021/06/09 07:00:19;;;;;;;5.78;2.50;;;;;;;21.49;68.92;100979.14;1705000;84;20976;-80
2021/06/09 07:02:53;;;;;;;14.33;2.95;;;;;;;21.58;69.76;100972.87;1705372;84;21003;-78
2021/06/09 07:05:21;;;;;;;4.03;2.75;;;;;;;21.70;68.44;100974.70;1705369;84;21040;-75
2021/06/09 07:07:48;;;;;;;14.35;3.75;;;;;;;21.79;66.84;100973.22;1705205;84;21123;-75
2021/06/09 07:10:17;;;;;;;5.87;2.37;;;;;;;21.84;66.45;100975.34;1705112;84;20948;-78
2021/06/09 07:12:45;;;;;;;5.08;2.98;;;;;;;21.90;66.41;100974.21;1705575;84;21689;-76
2021/06/09 07:15:18;;;;;;;4.78;3.20;;;;;;;21.97;65.51;100981.81;1705346;84;20928;-78
2021/06/09 07:17:56;;;;;;;6.70;2.55;;;;;;;22.05;64.92;100975.67;1705683;84;21115;-80
2021/06/09 07:20:28;;;;;;;4.00;2.87;;;;;;;22.12;63.85;100980.62;1704477;84;21064;-78
2021/06/09 07:22:58;;;;;;;4.55;2.80;;;;;;;22.17;63.43;100977.48;1705552;84;20941;-80
2021/06/09 07:25:30;;;;;;;4.25;2.90;;;;;;;22.23;64.72;100979.45;1705731;84;21103;-80
2021/06/09 07:28:00;;;;;;;4.10;2.62;;;;;;;22.31;64.70;100976.28;1678651;84;21027;-74
2021/06/09 07:30:31;;;;;;;4.20;2.55;;;;;;;22.40;64.89;100982.39;1705392;84;21047;-76
2021/06/09 07:33:00;;;;;;;3.47;2.65;;;;;;;22.47;65.11;100982.02;1705506;84;21101;-77
2021/06/09 07:35:27;;;;;;;3.12;2.52;;;;;;;22.52;65.17;100981.86;1677846;84;21063;-73
2021/06/09 07:38:03;;;;;;;2.80;2.60;;;;;;;22.56;64.37;100985.79;1705416;84;21055;-73
2021/06/09 07:40:34;;;;;;;3.35;2.80;;;;;;;22.58;63.97;100979.02;1705417;84;20944;-78
2021/06/09 07:43:09;;;;;;;5.75;3.45;;;;;;;22.61;64.17;100987.45;1705276;84;21598;-75
2021/06/09 07:45:38;;;;;;;6.53;3.10;;;;;;;;;;1705430;84;21574;-76
2021/06/09 07:48:07;;;;;;;8.75;3.10;;;;;;;22.77;64.48;100989.72;1679381;82;20984;-76
2021/06/09 07:50:39;;;;;;;6.22;2.80;;;;;;;22.87;63.50;100985.05;1703912;82;21970;-79
2021/06/09 07:53:07;;;;;;;4.95;2.85;;;;;;;22.98;62.27;100988.12;1734658;82;21032;-75
2021/06/09 07:55:34;;;;;;;4.37;2.70;;;;;;;23.07;61.07;100990.25;1734701;81;21032;-77
2021/06/09 07:58:03;;;;;;;4.80;3.40;;;;;;;23.08;61.14;100986.09;1731428;81;21107;-79
2021/06/09 08:00:30;;;;;;;5.05;2.75;;;;;;;23.14;62.04;100983.23;1729248;81;21105;-70
2021/06/09 08:02:57;;;;;;;7.85;3.15;;;;;;;23.22;61.53;100981.05;1760891;80;21533;-74
2021/06/09 08:05:25;;;;;;;6.40;2.67;;;;;;;23.28;61.50;100978.52;1756578;81;21070;-78
2021/06/09 08:07:54;;;;;;;12.70;3.02;;;;;;;23.36;62.11;100982.42;1760674;81;21467;-74
2021/06/09 08:10:21;;;;;;;4.95;2.80;;;;;;;23.42;61.34;100987.58;1760403;81;21112;-76
2021/06/09 08:12:58;;;;;;;4.87;2.92;;;;;;;23.45;60.33;100981.39;1760769;81;20995;-77
2021/06/09 08:15:25;;;;;;;3.70;2.58;;;;;;;23.47;60.13;100982.56;1760771;81;21574;-77
2021/06/09 08:17:57;;;;;;;3.92;2.67;;;;;;;23.49;60.22;100984.02;1760992;81;21059;-79
2021/06/09 08:20:27;;;;;;;3.37;2.80;;;;;;;23.51;59.58;100981.21;1760633;81;21150;-73
2021/06/09 08:23:00;;;;;;;5.97;3.23;;;;;;;23.52;60.04;100988.14;1734350;81;21105;-73
2021/06/09 08:25:31;;;;;;;7.33;3.10;;;;;;;23.58;60.48;100987.45;1760723;81;21735;-78
2021/06/09 08:28:06;;;;;;;5.78;3.20;;;;;;;23.61;59.78;100989.75;1761061;81;21004;-77
2021/06/09 08:30:34;;;;;;;3.15;2.70;;;;;;;23.67;59.78;100992.52;1760414;81;20976;-75
2021/06/09 08:33:05;;;;;;;4.85;2.90;;;;;;;23.74;58.96;100992.59;1759907;81;21043;-78
2021/06/09 08:35:32;;;;;;;4.65;2.87;;;;;;;23.77;58.24;100992.27;1759951;81;21110;-79
2021/06/09 08:38:06;;;;;;;4.67;2.55;;;;;;;23.77;58.09;100989.63;1760058;81;20972;-76
2021/06/09 08:40:37;;;;;;;2.52;2.33;;;;;;;23.84;56.73;100991.02;1732600;81;21304;-74
2021/06/09 08:43:07;;;;;;;4.35;3.05;;;;;;;23.90;55.38;100994.31;1708378;81;20984;-76
2021/06/09 08:45:42;;;;;;;4.10;2.58;;;;;;;23.89;55.97;100985.53;1709076;81;21060;-76
2021/06/09 08:48:18;;;;;;;5.55;2.62;;;;;;;23.97;56.41;100987.27;1760609;81;21184;-78
2021/06/09 08:50:49;;;;;;;3.65;2.92;;;;;;;24.02;54.01;100990.22;1759799;81;21661;-75
2021/06/09 08:53:25;;;;;;;3.10;2.70;;;;;;;24.04;53.95;100991.67;1732692;81;21166;-72
2021/06/09 08:55:55;;;;;;;3.22;2.58;;;;;;;24.06;54.44;100987.53;1760599;81;20983;-75
2021/06/09 08:58:23;;;;;;;3.45;2.90;;;;;;;24.11;55.74;100984.69;1706267;83;21021;-76
2021/06/09 09:00:51;;;;;;;6.45;2.70;;;;;;;24.17;55.01;100979.98;1727948;83;21068;-78
2021/06/09 09:03:20;;;;;;;5.58;2.60;;;;;;;24.29;55.09;100984.82;1727791;83;20998;-75
2021/06/09 09:06:02;;;;;;;3.15;2.83;;;;;;;24.43;55.58;100986.67;1727616;83;20954;-75
2021/06/09 09:08:43;;;;;;;9.93;2.90;;;;;;;24.52;52.58;100981.58;1724261;83;21046;-74
2021/06/09 09:11:22;;;;;;;5.33;2.90;;;;;;;24.58;52.88;100984.83;1717329;83;21541;-76
2021/06/09 09:13:58;;;;;;;11.05;3.27;;;;;;;24.67;52.56;100988.52;1722068;83;21837;-71
2021/06/09 09:16:32;;;;;;;3.60;3.30;;;;;;;24.74;53.03;100981.97;1724589;81;20979;-71
2021/06/09 09:19:14;;;;;;;5.78;3.17;;;;;;;24.88;54.01;100985.16;1742519;81;21065;-74
2021/06/09 09:21:48;;;;;;;6.37;3.17;;;;;;;25.00;53.74;100988.97;1729328;81;21014;-77
2021/06/09 09:24:46;;;;;;;5.22;2.77;;;;;;;25.08;53.81;100980.88;1753998;81;21097;-76
2021/06/09 09:27:33;;;;;;;;;;;;;;;25.16;53.99;100980.77;1735863;82;20986;-74
2021/06/09 09:30:09;;;;;;;3.65;3.00;;;;;;;25.24;54.99;100973.17;1725224;83;20093;-77
2021/06/09 09:33:00;;;;;;;4.05;3.27;;;;;;;25.31;53.69;100976.72;1726234;82;20982;-76
2021/06/09 09:35:37;;;;;;;5.25;2.98;;;;;;;25.32;53.16;100974.89;1732967;82;47209;-74
2021/06/09 09:38:28;;;;;;;3.67;2.90;;;;;;;25.39;53.87;100977.95;1732718;82;21037;-73
2021/06/09 09:41:15;;;;;;;6.37;2.98;;;;;;;25.42;52.81;100967.44;1731072;82;21854;-72
2021/06/09 09:44:05;;;;;;;3.20;2.90;;;;;;;25.48;52.96;100969.33;1732915;82;20959;-75
2021/06/09 09:46:40;;;;;;;9.85;3.77;;;;;;;25.52;52.31;100966.15;1734025;81;20946;-74
2021/06/09 09:49:13;;;;;;;;;;;;;;;25.58;51.91;100964.05;1749700;81;21083;-78
2021/06/09 09:51:55;;;;;;;7.12;3.35;;;;;;;25.71;52.16;100950.88;1763094;81;20188;-74
2021/06/09 09:54:34;;;;;;;6.08;3.10;;;;;;;25.73;50.94;100956.81;1763479;81;21878;-82
2021/06/09 09:57:09;;;;;;;6.03;2.90;;;;;;;25.71;49.88;100947.39;1762961;81;21025;-75
2021/06/09 09:59:37;;;;;;;3.55;2.58;;;;;;;25.73;50.03;100952.00;1762392;81;21137;-81
2021/06/09 10:02:16;;;;;;;3.20;2.90;;;;;;;25.79;49.80;100947.23;1762095;81;21141;-74
2021/06/09 10:04:49;;;;;;;3.37;2.90;;;;;;;25.98;49.60;100943.07;1762724;81;20966;-75
2021/06/09 10:07:12;;;;;;;3.33;2.87;;;;;;;26.15;49.49;100935.11;1761958;81;21216;-71
2021/06/09 10:09:44;;;;;;;7.17;3.35;;;;;;;26.38;49.46;100932.20;1746907;81;20998;-74
2021/06/09 10:12:13;;;;;;;4.90;2.95;;;;;;;26.50;47.61;100928.77;1761425;81;21576;-76
2021/06/09 10:14:48;;;;;;;7.53;2.65;;;;;;;26.57;48.13;100923.48;1763401;81;21066;-74
2021/06/09 10:17:26;;;;;;;2.60;2.40;;;;;;;26.64;47.93;100921.67;1762756;81;21003;-75
2021/06/09 10:19:59;;;;;;;4.85;3.08;;;;;;;26.70;47.89;100923.03;1762696;81;21969;-74
2021/06/09 10:22:34;;;;;;;8.20;2.95;;;;;;;26.73;47.46;100919.14;1763281;81;21600;-76
2021/06/09 10:25:12;;;;;;;4.47;2.87;;;;;;;26.74;48.45;100908.27;1763245;81;21014;-73
2021/06/09 10:27:47;;;;;;;8.70;2.87;;;;;;;26.90;48.49;100904.98;1763271;81;21034;-80
2021/06/09 10:30:24;;;;;;;3.33;2.67;;;;;;;27.00;48.73;100908.05;1763307;81;21052;-75
2021/06/09 10:32:58;;;;;;;3.02;2.72;;;;;;;26.91;47.09;100903.94;1763443;81;21156;-82
2021/06/09 10:35:32;;;;;;;;;;;;;;;26.95;46.43;100907.34;1765907;81;20942;-80
2021/06/09 10:37:59;;;;;;;3.17;2.87;;;;;;;26.97;46.29;100893.81;1763368;81;20094;-73
2021/06/09 10:40:30;;;;;;;5.33;2.72;;;;;;;27.03;46.51;100895.66;1763485;81;21513;-75
2021/06/09 10:43:00;;;;;;;5.17;2.83;;;;;;;27.14;46.92;100898.57;1763784;81;21062;-78
2021/06/09 10:45:30;;;;;;;4.85;2.80;;;;;;;27.32;47.82;100897.95;1763528;81;21199;-76
2021/06/09 10:48:00;;;;;;;3.20;2.83;;;;;;;27.28;44.81;100902.08;1763316;81;20996;-78
2021/06/09 10:50:29;;;;;;;3.65;3.05;;;;;;;27.19;44.57;100893.95;1766310;81;20971;-75
2021/06/09 10:52:57;;;;;;;5.47;2.50;;;;;;;27.07;46.02;100888.41;1767076;81;21081;-77
2021/06/09 10:55:24;;;;;;;11.57;3.10;;;;;;;27.10;45.45;100887.17;1767260;81;21071;-75
2021/06/09 10:57:52;;;;;;;4.28;3.10;;;;;;;27.08;46.83;100902.05;1766988;81;21858;-75
2021/06/09 11:00:22;;;;;;;8.98;3.05;;;;;;;26.72;48.30;100890.36;1767535;81;20879;-80
2021/06/09 11:02:49;;;;;;;5.17;3.40;;;;;;;26.37;49.82;100887.97;1767445;81;21792;-77
2021/06/09 11:05:18;;;;;;;7.65;3.20;;;;;;;26.05;51.12;100892.08;1767802;81;21465;-77
2021/06/09 11:07:47;;;;;;;5.05;2.65;;;;;;;25.68;51.46;100901.26;1767094;81;21054;-72
2021/06/09 11:10:43;;;;;;;5.60;3.10;;;;;;;25.51;51.31;100908.69;1767139;81;20911;-79
2021/06/09 11:13:11;;;;;;;6.17;2.83;;;;;;;25.55;52.13;100897.99;1766641;81;20927;-75
2021/06/09 11:15:40;;;;;;;8.05;2.75;;;;;;;25.71;51.40;100902.20;1767016;81;21010;-75
2021/06/09 11:18:18;;;;;;;3.62;2.42;;;;;;;25.81;49.60;100890.72;1766977;81;21517;-73
2021/06/09 11:20:49;;;;;;;3.62;2.27;;;;;;;26.10;50.06;100885.67;1766713;81;21842;-75
2021/06/09 11:23:34;;;;;;;;;;;;;;;26.45;47.56;100880.66;1769493;81;21011;-76
2021/06/09 11:26:04;;;;;;;6.12;2.55;;;;;;;26.68;49.43;100870.47;1766422;81;20098;-74
2021/06/09 11:28:39;;;;;;;3.70;2.40;;;;;;;25.91;51.73;100873.09;1766749;81;20970;-76
2021/06/09 11:31:10;;;;;;;2.47;2.05;;;;;;;25.10;49.99;100867.33;1763298;81;20994;-78
2021/06/09 11:34:03;;;;;;;4.15;2.67;;;;;;;24.89;49.69;100855.36;1748623;81;21008;-79
2021/06/09 11:36:39;;;;;;;2.77;2.02;;;;;;;25.15;50.29;100862.76;1746958;81;21127;-75
2021/06/09 11:39:20;;;;;;;6.15;2.22;;;;;;;25.73;48.84;100858.95;1766815;81;20955;-74
2021/06/09 11:41:48;;;;;;;2.60;2.22;;;;;;;25.92;48.03;100848.95;1766883;81;20899;-76
2021/06/09 11:44:34;;;;;;;2.92;2.60;;;;;;;26.09;47.56;100844.13;1767019;81;20963;-78
2021/06/09 11:47:27;;;;;;;3.33;2.20;;;;;;;26.24;46.98;100849.65;1766987;81;20923;-75
2021/06/09 11:50:33;;;;;;;4.08;3.05;;;;;;;26.43;46.43;100840.59;1764255;81;21497;-76
2021/06/09 11:55:44;;;;;;;4.72;3.02;;;;;;;27.43;44.12;100842.74;1698462;81;21508;-77
2021/06/09 11:58:14;;;;;;;7.20;2.75;;;;;;;27.72;43.33;100838.30;1763105;81;21109;-72
2021/06/09 12:01:07;;;;;;;4.62;2.87;;;;;;;27.92;42.67;100842.77;1763550;81;21035;-78